Time;durP1;ratioP1;P1;durP2;ratioP2;P2;SDS_P1;SDS_P2;PMS_P1;PMS_P2;Temp;Humidity;BMP_temperature;BMP_pressure;BME280_temperature;BME280_humidity;BME280_pressure;Samples;Min_cycle;Max_cycle;Signal;HPM_P1;HPM_P2
2023/12/27 00:01:43;;;;;;;3.83;0.63;;;;;;;7.30;62.32;101367.19;5042247;28;20106;-37
2023/12/27 00:04:08;;;;;;;10.55;1.25;;;;;;;7.46;61.83;101383.25;5046663;28;20111;-38
2023/12/27 00:06:34;;;;;;;6.07;0.80;;;;;;;7.47;62.08;101390.22;5043206;28;20028;-38
2023/12/27 00:09:00;;;;;;;9.57;0.82;;;;;;;7.37;61.96;101394.03;5046226;28;20434;-37
2023/12/27 00:11:26;;;;;;;3.28;0.63;;;;;;;6.78;63.70;101399.41;5045088;28;20099;-38
2023/12/27 00:13:51;;;;;;;2.35;0.90;;;;;;;7.11;62.94;101393.97;5049232;28;20478;-37
2023/12/27 00:16:17;;;;;;;4.22;1.08;;;;;;;6.88;63.63;101406.97;5042442;28;20069;-36
2023/12/27 00:18:43;;;;;;;10.13;1.73;;;;;;;6.99;63.29;101421.44;5046967;28;20426;-36
2023/12/27 00:21:08;;;;;;;7.97;0.73;;;;;;;7.34;62.82;101423.78;5050397;28;20038;-37
2023/12/27 00:23:33;;;;;;;9.23;1.50;;;;;;;7.53;62.06;101426.66;5048312;28;20052;-38
2023/12/27 00:25:59;;;;;;;14.10;1.83;;;;;;;7.33;62.47;101422.94;5048175;28;20029;-38
2023/12/27 00:28:25;;;;;;;6.93;0.73;;;;;;;7.28;62.73;101422.25;5049664;28;20586;-36
2023/12/27 00:30:51;;;;;;;6.70;0.93;;;;;;;7.35;62.67;101427.25;5043543;28;20035;-36
2023/12/27 00:33:17;;;;;;;9.65;1.50;;;;;;;7.44;62.52;101427.81;5046913;28;20387;-37
2023/12/27 00:35:43;;;;;;;3.00;1.50;;;;;;;7.23;62.64;101437.22;5048847;28;20040;-36
2023/12/27 00:38:08;;;;;;;4.57;0.93;;;;;;;7.00;62.89;101443.19;5046315;28;20033;-36
2023/12/27 00:40:33;;;;;;;6.93;1.00;;;;;;;7.32;62.55;101433.47;5047809;28;20057;-36
2023/12/27 00:42:59;;;;;;;9.82;1.67;;;;;;;7.25;62.92;101439.81;5047646;28;20127;-35
2023/12/27 00:45:24;;;;;;;3.97;0.70;;;;;;;7.42;62.23;101447.94;5046735;28;20083;-35
2023/12/27 00:47:50;;;;;;;6.15;1.55;;;;;;;6.95;62.71;101439.91;5047620;28;20491;-35
2023/12/27 00:50:16;;;;;;;12.75;1.23;;;;;;;7.28;62.42;101458.91;5046933;28;20079;-36
2023/12/27 00:52:41;;;;;;;2.67;0.85;;;;;;;6.79;63.18;101448.22;5047439;28;20037;-35
2023/12/27 00:55:07;;;;;;;10.15;2.50;;;;;;;7.17;62.68;101448.75;5049159;28;20846;-35
2023/12/27 00:57:33;;;;;;;7.25;0.80;;;;;;;7.21;62.27;101452.13;5049064;28;20083;-36
2023/12/27 00:59:59;;;;;;;4.70;0.90;;;;;;;7.12;62.73;101447.19;5029413;28;20391;-36
2023/12/27 01:02:25;;;;;;;5.78;0.70;;;;;;;7.22;62.58;101443.38;5045376;28;20029;-36
2023/12/27 01:04:52;;;;;;;6.93;1.27;;;;;;;7.42;61.96;101445.31;5047937;28;20036;-36
2023/12/27 01:07:18;;;;;;;5.07;0.98;;;;;;;7.52;61.68;101452.91;5044086;28;20044;-36
2023/12/27 01:09:44;;;;;;;10.50;1.92;;;;;;;7.67;61.19;101454.13;5049918;28;20379;-36
2023/12/27 01:12:10;;;;;;;6.10;1.73;;;;;;;7.47;61.59;101458.28;5048238;28;20411;-35
2023/12/27 01:14:36;;;;;;;11.82;1.33;;;;;;;7.50;61.28;101459.94;5047719;28;20025;-35
2023/12/27 01:17:01;;;;;;;10.77;1.38;;;;;;;7.20;62.53;101467.91;5041428;28;20036;-36
2023/12/27 01:19:26;;;;;;;6.40;1.13;;;;;;;7.15;62.59;101478.50;5045874;28;20103;-36
2023/12/27 01:21:52;;;;;;;5.38;1.08;;;;;;;7.21;62.35;101480.06;5045706;28;20411;-36
2023/12/27 01:24:17;;;;;;;8.68;1.52;;;;;;;7.10;62.84;101496.13;5047989;28;20029;-35
2023/12/27 01:26:43;;;;;;;7.13;1.15;;;;;;;7.00;62.72;101491.19;5046708;28;20145;-36
2023/12/27 01:29:08;;;;;;;4.18;0.63;;;;;;;7.07;63.06;101509.28;5045866;28;20029;-36
2023/12/27 01:31:33;;;;;;;8.13;1.00;;;;;;;7.21;62.87;101512.34;5044279;28;20032;-36
2023/12/27 01:33:59;;;;;;;14.82;1.30;;;;;;;7.36;62.61;101507.50;5047347;28;20043;-37
2023/12/27 01:36:24;;;;;;;7.22;1.00;;;;;;;7.29;62.61;101512.97;5048537;28;20048;-37
2023/12/27 01:38:49;;;;;;;3.55;0.88;;;;;;;7.39;62.56;101520.50;5044407;28;20059;-37
2023/12/27 01:41:15;;;;;;;3.85;0.90;;;;;;;7.39;62.34;101512.66;5046302;28;20120;-37
2023/12/27 01:43:40;;;;;;;2.67;0.88;;;;;;;6.74;64.03;101519.84;5043003;28;20510;-37
2023/12/27 01:46:07;;;;;;;1.30;0.85;;;;;;;6.90;64.20;101521.13;5043517;28;20033;-37
2023/12/27 01:48:32;;;;;;;4.95;0.60;;;;;;;6.80;63.77;101535.38;5048793;28;20096;-37
2023/12/27 01:51:00;;;;;;;2.75;1.42;;;;;;;6.96;64.09;101528.81;5029137;28;20029;-37
2023/12/27 01:53:27;;;;;;;8.82;1.45;;;;;;;7.17;63.03;101550.00;5047222;28;20044;-37
2023/12/27 01:55:53;;;;;;;3.63;0.93;;;;;;;7.24;62.94;101540.19;5045535;28;20495;-37
2023/12/27 01:58:19;;;;;;;15.57;2.45;;;;;;;7.26;62.71;101538.38;5046005;28;20048;-37
2023/12/27 02:00:47;;;;;;;3.10;0.52;;;;;;;7.23;62.68;101539.31;5039907;28;20033;-37
2023/12/27 02:03:12;;;;;;;5.65;0.93;;;;;;;7.22;62.89;101534.16;5046393;28;20174;-36
2023/12/27 02:05:40;;;;;;;8.07;1.77;;;;;;;7.23;62.64;101541.94;5045553;28;20181;-36
2023/12/27 02:08:08;;;;;;;6.32;1.48;;;;;;;7.26;62.83;101548.88;5044273;28;20041;-36
2023/12/27 02:10:34;;;;;;;5.93;0.60;;;;;;;6.69;64.00;101562.72;5046126;28;20095;-36
2023/12/27 02:13:06;;;;;;;4.72;1.60;;;;;;;7.20;63.01;101564.75;5049206;28;20045;-36
2023/12/27 02:15:32;;;;;;;9.05;1.83;;;;;;;6.96;63.48;101560.19;5043415;28;20479;-36
2023/12/27 02:18:00;;;;;;;10.23;1.35;;;;;;;7.19;62.67;101563.88;5047296;28;20037;-36
2023/12/27 02:20:26;;;;;;;8.07;1.90;;;;;;;7.26;62.21;101565.41;5043217;28;20025;-36
2023/12/27 02:22:53;;;;;;;8.13;1.05;;;;;;;7.10;62.72;101580.75;5046698;28;20499;-37
2023/12/27 02:25:18;;;;;;;0.90;0.57;;;;;;;7.17;62.43;101566.53;5046482;28;20085;-37
2023/12/27 02:27:45;;;;;;;3.22;0.60;;;;;;;6.69;63.54;101564.47;5046056;28;20482;-37
2023/12/27 02:30:21;;;;;;;1.17;0.68;;;;;;;7.07;63.27;101562.50;5042527;28;20025;-37
2023/12/27 02:32:50;;;;;;;10.50;1.20;;;;;;;7.16;62.98;101566.59;5049194;28;20041;-37
2023/12/27 02:35:17;;;;;;;9.30;1.80;;;;;;;7.33;62.74;101566.91;5047760;28;20045;-37
2023/12/27 02:37:42;;;;;;;11.15;1.63;;;;;;;6.92;63.52;101563.78;5042182;28;20040;-37
2023/12/27 02:40:09;;;;;;;19.15;2.10;;;;;;;6.94;62.66;101572.47;5046810;28;20033;-37
2023/12/27 02:42:38;;;;;;;6.18;1.17;;;;;;;7.16;62.87;101579.69;5045507;28;20032;-37
2023/12/27 02:45:05;;;;;;;9.90;1.60;;;;;;;7.33;62.46;101577.41;5041138;28;20127;-37
2023/12/27 02:47:30;;;;;;;10.40;2.35;;;;;;;7.09;62.88;101575.53;5050000;28;20032;-37
2023/12/27 02:49:55;;;;;;;12.85;2.03;;;;;;;6.90;63.05;101586.53;5028638;28;20086;-37
2023/12/27 02:52:21;;;;;;;2.28;0.50;;;;;;;7.04;63.00;101591.38;5041106;28;20041;-37
2023/12/27 02:54:46;;;;;;;10.10;1.23;;;;;;;7.12;63.10;101585.91;5047639;28;20061;-37
2023/12/27 02:57:13;;;;;;;5.75;1.15;;;;;;;7.18;63.09;101609.31;5044542;28;20541;-35
2023/12/27 02:59:38;;;;;;;5.43;1.40;;;;;;;7.15;62.69;101583.22;5045724;28;20025;-35
2023/12/27 03:02:04;;;;;;;10.98;0.73;;;;;;;7.18;63.00;101598.84;5046553;28;20044;-36
2023/12/27 03:04:29;;;;;;;4.72;1.02;;;;;;;7.22;62.70;101603.06;5045248;28;20032;-35
2023/12/27 03:06:54;;;;;;;8.32;0.98;;;;;;;7.25;62.47;101595.09;5045439;28;20545;-35
2023/12/27 03:09:20;;;;;;;7.30;1.20;;;;;;;7.26;62.63;101594.22;5044478;28;20473;-35
2023/12/27 03:11:45;;;;;;;8.82;0.90;;;;;;;7.19;62.79;101600.50;5045344;28;20044;-36
2023/12/27 03:14:11;;;;;;;3.25;0.75;;;;;;;6.76;64.14;101586.06;5047027;28;20111;-35
2023/12/27 03:16:36;;;;;;;17.58;1.90;;;;;;;7.37;62.46;101598.25;5045497;28;20029;-36
2023/12/27 03:19:02;;;;;;;8.43;1.58;;;;;;;7.23;62.93;101591.69;5045662;28;20037;-36
2023/12/27 03:21:28;;;;;;;7.95;1.42;;;;;;;7.34;62.03;101593.97;5043571;28;20028;-35
2023/12/27 03:23:53;;;;;;;3.55;1.30;;;;;;;7.07;63.26;101603.50;5044555;28;20411;-35
2023/12/27 03:26:18;;;;;;;7.22;1.00;;;;;;;7.22;62.45;101616.13;5047127;28;20122;-36
2023/12/27 03:28:44;;;;;;;3.53;1.15;;;;;;;7.18;62.64;101614.53;5047006;28;20132;-35
2023/12/27 03:31:09;;;;;;;4.25;1.08;;;;;;;7.35;62.35;101615.75;5041545;28;20020;-36
2023/12/27 03:33:35;;;;;;;4.55;0.95;;;;;;;7.30;62.59;101619.41;5046654;28;20038;-36
2023/12/27 03:36:01;;;;;;;2.20;0.88;;;;;;;7.21;62.57;101624.06;5045477;28;20113;-36
2023/12/27 03:38:26;;;;;;;12.15;1.52;;;;;;;7.37;62.25;101620.06;5047162;28;20033;-36
2023/12/27 03:40:52;;;;;;;3.45;1.00;;;;;;;7.10;62.36;101621.75;5041963;28;20119;-36
2023/12/27 03:43:17;;;;;;;9.15;1.15;;;;;;;7.29;62.49;101633.41;5050469;28;20040;-36
2023/12/27 03:45:45;;;;;;;6.72;1.00;;;;;;;7.09;62.17;101633.09;5045405;28;20029;-36
2023/12/27 03:48:10;;;;;;;10.18;1.17;;;;;;;7.19;62.91;101624.06;5050071;28;20033;-37
2023/12/27 03:50:35;;;;;;;6.78;1.00;;;;;;;7.18;62.65;101627.63;5047060;28;20074;-37
2023/12/27 03:53:01;;;;;;;13.90;1.10;;;;;;;7.29;62.59;101627.28;5048914;28;20902;-36
2023/12/27 03:55:26;;;;;;;6.38;0.80;;;;;;;7.08;63.35;101645.34;5049372;28;20033;-37
2023/12/27 03:57:52;;;;;;;3.65;1.42;;;;;;;7.18;63.23;101630.25;5049854;28;20454;-37
2023/12/27 04:00:18;;;;;;;6.00;0.93;;;;;;;7.01;63.13;101642.06;5048983;28;20025;-37
2023/12/27 04:02:45;;;;;;;8.48;1.00;;;;;;;7.00;63.49;101627.25;5048975;28;20043;-37
2023/12/27 04:05:10;;;;;;;10.20;1.45;;;;;;;6.99;63.67;101628.16;5049579;28;20091;-37
2023/12/27 04:07:36;;;;;;;4.90;0.88;;;;;;;6.92;63.33;101639.69;5049755;28;20029;-37
2023/12/27 04:10:03;;;;;;;8.18;1.33;;;;;;;7.10;63.42;101634.81;5049886;28;20025;-37
2023/12/27 04:12:28;;;;;;;6.03;1.33;;;;;;;6.93;64.21;101636.16;5049315;28;20086;-37
2023/12/27 04:14:53;;;;;;;5.30;0.85;;;;;;;6.59;64.13;101633.63;5047657;28;20394;-37
2023/12/27 04:17:19;;;;;;;10.70;1.75;;;;;;;7.07;63.64;101632.28;5048336;28;20824;-37
2023/12/27 04:19:44;;;;;;;2.70;0.55;;;;;;;6.28;65.27;101640.50;5045780;28;20036;-36
2023/12/27 04:22:09;;;;;;;8.27;1.38;;;;;;;6.82;64.27;101638.22;5045053;28;20051;-36
2023/12/27 04:24:35;;;;;;;8.18;1.45;;;;;;;6.49;64.70;101652.19;5047647;28;20029;-36
2023/12/27 04:27:01;;;;;;;7.63;1.52;;;;;;;6.74;64.81;101648.91;5048338;28;20040;-36
2023/12/27 04:29:26;;;;;;;4.20;0.95;;;;;;;6.62;64.43;101650.06;5047368;28;20037;-37
2023/12/27 04:31:51;;;;;;;8.18;1.60;;;;;;;6.40;65.69;101652.41;5047457;28;20553;-37
2023/12/27 04:34:17;;;;;;;7.57;1.10;;;;;;;6.40;65.51;101663.72;5047840;28;20035;-37
2023/12/27 04:36:42;;;;;;;12.60;1.20;;;;;;;5.86;66.49;101669.34;5048014;28;20091;-37
2023/12/27 04:39:08;;;;;;;6.50;0.80;;;;;;;5.97;67.26;101680.44;5049297;28;20743;-37
2023/12/27 04:41:33;;;;;;;5.72;0.90;;;;;;;6.05;66.62;101677.66;5047610;28;20028;-37
2023/12/27 04:43:59;;;;;;;10.27;1.00;;;;;;;6.18;66.43;101688.66;5044916;28;20037;-37
2023/12/27 04:46:24;;;;;;;11.05;1.55;;;;;;;5.92;66.42;101687.50;5043596;28;20056;-37
2023/12/27 04:48:49;;;;;;;4.03;1.23;;;;;;;6.34;65.76;101692.63;5046445;28;20483;-35
2023/12/27 04:51:15;;;;;;;12.95;1.58;;;;;;;6.10;67.14;101692.34;5046653;28;20091;-36
2023/12/27 04:53:40;;;;;;;6.10;1.25;;;;;;;5.80;67.15;101694.72;5048916;28;20427;-35
2023/12/27 04:56:06;;;;;;;7.47;1.17;;;;;;;5.99;67.24;101694.28;5043555;28;20166;-35
2023/12/27 04:58:35;;;;;;;6.32;1.58;;;;;;;6.23;66.32;101708.56;5048867;28;20483;-35
2023/12/27 05:01:08;;;;;;;10.60;1.55;;;;;;;5.77;67.37;101706.97;5042162;28;20356;-36
2023/12/27 05:03:35;;;;;;;3.55;0.73;;;;;;;5.84;67.99;101708.56;5049725;28;20029;-36
2023/12/27 05:06:09;;;;;;;5.75;2.30;;;;;;;5.65;68.05;101700.28;5047624;28;20024;-35
2023/12/27 05:08:37;;;;;;;7.43;1.05;;;;;;;5.37;69.04;101705.22;5048043;28;20107;-35
2023/12/27 05:11:13;;;;;;;3.05;0.82;;;;;;;6.00;67.89;101710.88;5045594;28;20096;-36
2023/12/27 05:13:39;;;;;;;3.35;0.85;;;;;;;6.05;67.25;101715.09;5044102;28;20403;-35
2023/12/27 05:16:12;;;;;;;8.75;1.23;;;;;;;5.86;67.59;101706.78;5043964;28;20036;-34
2023/12/27 05:18:39;;;;;;;8.45;2.03;;;;;;;5.86;67.91;101716.38;5051797;28;20028;-36
2023/12/27 05:21:04;;;;;;;5.32;0.73;;;;;;;6.07;67.66;101721.16;5047312;28;20028;-35
2023/12/27 05:23:29;;;;;;;13.05;2.10;;;;;;;6.11;66.80;101724.53;5048163;28;20033;-36
2023/12/27 05:25:56;;;;;;;11.85;1.75;;;;;;;6.21;66.54;101725.19;5045887;28;20098;-35
2023/12/27 05:28:23;;;;;;;9.48;1.27;;;;;;;5.61;68.02;101725.59;5045626;28;20078;-36
2023/12/27 05:30:50;;;;;;;7.47;1.63;;;;;;;6.16;66.57;101727.91;5028769;28;20518;-35
2023/12/27 05:33:15;;;;;;;1.50;0.88;;;;;;;5.56;68.37;101732.69;5048341;28;20048;-35
2023/12/27 05:35:41;;;;;;;9.80;1.35;;;;;;;5.94;67.76;101722.28;5050634;28;20098;-35
2023/12/27 05:38:06;;;;;;;6.75;1.20;;;;;;;6.01;66.92;101734.34;5047604;28;20041;-35
2023/12/27 05:40:32;;;;;;;11.13;1.33;;;;;;;5.93;67.03;101716.19;5049526;28;20029;-37
2023/12/27 05:42:57;;;;;;;6.68;1.45;;;;;;;5.94;66.75;101724.91;5046399;28;20064;-36
2023/12/27 05:45:23;;;;;;;6.38;2.20;;;;;;;6.04;66.59;101729.06;5047055;28;20039;-36
2023/12/27 05:47:48;;;;;;;16.30;1.20;;;;;;;5.85;67.26;101727.72;5051766;28;20029;-36
2023/12/27 05:50:14;;;;;;;3.60;1.02;;;;;;;6.07;66.47;101734.22;5047064;28;20029;-35
2023/12/27 05:52:40;;;;;;;8.40;2.35;;;;;;;5.75;67.26;101733.13;5048457;28;20045;-35
2023/12/27 05:55:06;;;;;;;7.80;1.25;;;;;;;6.13;66.42;101730.59;5047656;28;20039;-33
2023/12/27 05:57:32;;;;;;;6.25;1.73;;;;;;;6.16;66.19;101732.25;5029465;28;20094;-35
2023/12/27 05:59:57;;;;;;;13.18;1.73;;;;;;;6.17;66.37;101728.75;5045228;28;20437;-36
2023/12/27 06:02:22;;;;;;;11.85;1.83;;;;;;;5.90;67.26;101731.09;5048678;28;20028;-35
2023/12/27 06:04:48;;;;;;;9.57;1.17;;;;;;;5.98;66.86;101750.03;5045844;28;20041;-34
2023/12/27 06:07:13;;;;;;;4.13;0.98;;;;;;;5.73;67.05;101745.38;5048653;28;20051;-35
2023/12/27 06:09:39;;;;;;;5.75;1.50;;;;;;;5.68;68.22;101736.75;5050524;28;20639;-35
2023/12/27 06:12:08;;;;;;;10.98;2.67;;;;;;;6.03;66.96;101743.00;5047175;28;20028;-35
2023/12/27 06:14:34;;;;;;;5.35;2.17;;;;;;;6.02;66.73;101737.81;5045162;28;20036;-35
2023/12/27 06:16:59;;;;;;;2.60;0.82;;;;;;;6.06;66.31;101744.69;5042804;28;20044;-35
2023/12/27 06:19:25;;;;;;;3.90;1.10;;;;;;;6.09;65.72;101758.56;5047720;28;20075;-35
2023/12/27 06:21:50;;;;;;;7.97;1.55;;;;;;;5.75;67.47;101764.47;5050933;28;20048;-36
2023/12/27 06:24:15;;;;;;;10.77;1.45;;;;;;;5.98;66.71;101776.16;5026744;28;20080;-35
2023/12/27 06:26:41;;;;;;;7.05;1.38;;;;;;;5.91;66.44;101766.75;5045812;28;20745;-34
2023/12/27 06:29:06;;;;;;;11.73;1.38;;;;;;;5.98;66.80;101778.78;5047570;28;20037;-35
2023/12/27 06:31:34;;;;;;;6.50;2.15;;;;;;;6.19;65.94;101779.25;5045098;28;20079;-36
2023/12/27 06:34:00;;;;;;;5.00;1.02;;;;;;;5.67;67.13;101771.63;5044648;28;20498;-36
2023/12/27 06:36:26;;;;;;;8.30;1.38;;;;;;;5.97;66.24;101774.47;5027641;28;20483;-36
2023/12/27 06:38:51;;;;;;;10.55;1.65;;;;;;;6.28;66.04;101779.03;5047906;28;20025;-35
2023/12/27 06:41:16;;;;;;;8.10;1.58;;;;;;;6.35;65.47;101791.06;5042145;28;20032;-35
2023/12/27 06:43:43;;;;;;;10.13;1.73;;;;;;;6.49;64.86;101795.13;5047926;28;20044;-36
2023/12/27 06:46:09;;;;;;;7.50;1.67;;;;;;;6.29;65.39;101806.88;5040981;28;20075;-36
2023/12/27 06:48:34;;;;;;;10.45;1.45;;;;;;;6.47;64.79;101804.75;5045542;28;20380;-36
2023/12/27 06:51:02;;;;;;;10.13;2.30;;;;;;;6.05;65.96;101808.31;5040847;28;20028;-36
2023/12/27 06:53:28;;;;;;;5.38;1.27;;;;;;;6.40;65.41;101819.72;5045049;28;20036;-36
2023/12/27 06:55:54;;;;;;;8.88;1.92;;;;;;;6.46;65.50;101829.16;5046473;28;20086;-36
2023/12/27 06:58:19;;;;;;;10.80;1.70;;;;;;;6.70;64.75;101833.84;5047310;28;20036;-36
2023/12/27 07:00:45;;;;;;;11.10;2.05;;;;;;;6.73;64.45;101832.06;5045107;28;20429;-36
2023/12/27 07:03:11;;;;;;;3.72;0.93;;;;;;;6.74;64.14;101845.09;5045399;28;20116;-36
2023/12/27 07:05:37;;;;;;;11.15;1.55;;;;;;;6.70;63.90;101852.16;5046374;28;20104;-36
2023/12/27 07:08:03;;;;;;;9.13;1.60;;;;;;;6.81;64.46;101853.66;5044392;28;20125;-36
2023/12/27 07:10:28;;;;;;;6.35;1.27;;;;;;;6.77;63.97;101858.09;5046672;28;20523;-36
2023/12/27 07:12:53;;;;;;;8.55;1.52;;;;;;;6.82;63.88;101863.22;5047619;28;20515;-36
2023/12/27 07:15:19;;;;;;;8.25;1.65;;;;;;;6.84;64.03;101870.13;5045223;28;20091;-36
2023/12/27 07:17:44;;;;;;;7.22;1.65;;;;;;;6.95;63.42;101863.78;5043674;28;20040;-36
2023/12/27 07:20:10;;;;;;;11.55;2.38;;;;;;;6.96;63.71;101876.81;5046780;28;20029;-36
2023/12/27 07:22:36;;;;;;;15.77;2.60;;;;;;;6.86;63.88;101876.19;5044848;28;20044;-36
2023/12/27 07:25:01;;;;;;;13.70;2.67;;;;;;;6.90;63.71;101876.13;5046384;28;20040;-36
2023/12/27 07:27:27;;;;;;;11.13;2.55;;;;;;;6.88;63.40;101886.63;5047725;28;21038;-35
2023/12/27 07:29:52;;;;;;;12.10;1.95;;;;;;;7.02;63.37;101875.81;5046415;28;20090;-34
2023/12/27 07:32:17;;;;;;;10.07;1.65;;;;;;;7.03;63.57;101882.75;5047349;28;20115;-35
2023/12/27 07:34:43;;;;;;;6.15;1.55;;;;;;;6.96;63.52;101876.81;5044960;28;20033;-35
2023/12/27 07:37:08;;;;;;;7.55;1.30;;;;;;;6.83;63.59;101884.09;5046727;28;20115;-35
2023/12/27 07:39:34;;;;;;;4.28;1.30;;;;;;;6.76;63.80;101885.16;5044937;28;20021;-35
2023/12/27 07:41:59;;;;;;;14.00;2.08;;;;;;;6.66;64.29;101897.59;5043031;28;20069;-35
2023/12/27 07:44:26;;;;;;;15.80;2.85;;;;;;;6.81;64.43;101898.13;5043887;28;20029;-36
2023/12/27 07:46:52;;;;;;;5.82;1.90;;;;;;;6.61;64.19;101899.44;5041101;28;20111;-34
2023/12/27 07:49:18;;;;;;;13.10;1.08;;;;;;;6.32;64.17;101898.31;5025616;28;20139;-35
2023/12/27 07:51:43;;;;;;;14.38;2.08;;;;;;;6.64;64.74;101909.81;5037684;28;20036;-35
2023/12/27 07:54:09;;;;;;;14.95;1.95;;;;;;;6.69;64.35;101905.38;5023702;28;20045;-35
2023/12/27 07:56:35;;;;;;;11.88;1.98;;;;;;;6.71;64.19;101898.34;5035296;28;20540;-35
2023/12/27 07:59:00;;;;;;;7.75;2.03;;;;;;;6.47;64.60;101898.88;5034713;28;20025;-36
2023/12/27 08:01:31;;;;;;;9.65;2.20;;;;;;;6.60;64.70;101910.78;5037727;28;20094;-35
2023/12/27 08:03:57;;;;;;;10.77;1.83;;;;;;;6.69;64.51;101900.13;5045177;28;20035;-35
2023/12/27 08:06:22;;;;;;;6.88;2.58;;;;;;;6.80;64.50;101906.88;5043768;28;20040;-35
2023/12/27 08:08:47;;;;;;;7.18;1.27;;;;;;;6.65;63.87;101914.16;5041776;28;20104;-35
2023/12/27 08:11:13;;;;;;;6.85;1.15;;;;;;;6.82;64.20;101915.53;5040543;28;20044;-35
2023/12/27 08:13:38;;;;;;;6.40;1.17;;;;;;;6.89;63.57;101909.25;5037391;28;20033;-34
2023/12/27 08:16:05;;;;;;;8.82;1.77;;;;;;;6.78;64.05;101914.75;5038217;28;20502;-35
2023/12/27 08:18:30;;;;;;;6.63;1.40;;;;;;;6.69;63.92;101918.44;5041455;28;20044;-35
2023/12/27 08:20:56;;;;;;;4.85;1.08;;;;;;;6.45;63.95;101926.81;5040062;28;20053;-34
2023/12/27 08:23:21;;;;;;;8.68;1.38;;;;;;;6.40;64.35;101921.69;5042233;28;20056;-34
2023/12/27 08:25:47;;;;;;;7.20;1.52;;;;;;;6.55;64.66;101926.59;5040940;28;20040;-35
2023/12/27 08:28:14;;;;;;;17.05;1.60;;;;;;;6.49;64.43;101929.34;5045440;28;20040;-35
2023/12/27 08:30:40;;;;;;;5.75;1.38;;;;;;;6.59;64.90;101936.97;5045598;28;20510;-34
2023/12/27 08:33:08;;;;;;;11.32;2.47;;;;;;;6.54;64.49;101939.72;5046645;28;20037;-34
2023/12/27 08:35:34;;;;;;;8.80;1.67;;;;;;;6.44;64.81;101953.84;5040097;28;20112;-36
2023/12/27 08:38:00;;;;;;;7.93;1.98;;;;;;;6.48;64.81;101945.94;5045932;28;20094;-36
2023/12/27 08:40:25;;;;;;;9.00;1.20;;;;;;;6.64;64.65;101949.06;5045388;28;20025;-36
2023/12/27 08:42:50;;;;;;;5.00;1.30;;;;;;;6.53;64.68;101949.28;5044195;28;20036;-36
2023/12/27 08:45:16;;;;;;;9.57;1.17;;;;;;;6.17;65.07;101951.78;5044206;28;20043;-36
2023/12/27 08:47:43;;;;;;;8.35;1.63;;;;;;;6.69;65.23;101951.56;5036556;28;20475;-37
2023/12/27 08:50:08;;;;;;;5.60;1.50;;;;;;;6.74;64.08;101954.06;5048794;28;20025;-36
2023/12/27 08:52:34;;;;;;;12.15;1.40;;;;;;;6.92;64.12;101964.13;5047523;28;20029;-36
2023/12/27 08:55:00;;;;;;;5.25;1.13;;;;;;;6.99;64.05;101976.19;5045844;28;20025;-36
2023/12/27 08:57:25;;;;;;;12.60;1.58;;;;;;;7.16;63.66;101974.94;5053288;28;20091;-36
2023/12/27 08:59:50;;;;;;;10.07;1.63;;;;;;;7.19;63.68;101971.38;5047125;28;20487;-36
2023/12/27 09:02:16;;;;;;;4.47;1.20;;;;;;;7.35;63.15;101974.47;5047981;28;20064;-37
2023/12/27 09:04:41;;;;;;;13.38;1.88;;;;;;;7.26;62.90;101973.81;5048743;28;20041;-36
2023/12/27 09:07:06;;;;;;;8.45;1.35;;;;;;;7.20;62.75;101978.34;5048409;28;20835;-36
2023/12/27 09:09:32;;;;;;;11.68;2.42;;;;;;;7.07;63.32;101989.13;5050112;28;20095;-36
2023/12/27 09:11:57;;;;;;;16.15;3.10;;;;;;;7.22;63.55;101982.63;5050535;28;20386;-36
2023/12/27 09:14:24;;;;;;;8.15;1.70;;;;;;;7.00;63.34;101991.00;5046987;28;20079;-36
2023/12/27 09:16:50;;;;;;;11.82;1.45;;;;;;;7.38;63.37;101992.75;5048304;28;20037;-36
2023/12/27 09:19:15;;;;;;;10.60;2.15;;;;;;;7.41;63.13;102001.38;5050675;28;20021;-36
2023/12/27 09:21:45;;;;;;;16.35;2.03;;;;;;;7.47;62.55;101998.63;5024698;28;20043;-36
2023/12/27 09:24:11;;;;;;;9.98;1.50;;;;;;;7.47;62.40;102003.00;5032259;28;20041;-36
2023/12/27 09:26:36;;;;;;;8.35;2.17;;;;;;;7.62;62.71;102007.00;5049565;28;20115;-36
2023/12/27 09:29:02;;;;;;;11.55;1.88;;;;;;;7.59;62.68;101997.47;5047016;28;20033;-35
2023/12/27 09:31:30;;;;;;;11.20;1.88;;;;;;;7.52;62.64;102000.28;5055132;22;20040;-38
2023/12/27 09:33:56;;;;;;;3.65;1.33;;;;;;;7.48;62.89;102009.97;5041092;28;20029;-37
2023/12/27 09:36:21;;;;;;;10.30;2.13;;;;;;;7.24;63.19;102001.78;5043441;28;20037;-37
2023/12/27 09:38:47;;;;;;;9.68;2.00;;;;;;;7.36;63.07;102010.25;5046135;28;20037;-38
2023/12/27 09:41:13;;;;;;;5.75;1.80;;;;;;;7.39;63.29;102002.31;5046354;28;20036;-38
2023/12/27 09:43:41;;;;;;;13.57;2.08;;;;;;;7.37;63.60;102006.72;5036006;28;20087;-38
2023/12/27 09:46:08;;;;;;;10.25;1.80;;;;;;;7.21;63.66;102011.50;5037030;28;20606;-38
2023/12/27 09:48:36;;;;;;;9.15;2.40;;;;;;;7.45;63.35;101997.81;5048823;28;20028;-38
2023/12/27 09:51:04;;;;;;;7.53;1.65;;;;;;;7.49;63.27;102001.19;5049257;28;20036;-40
2023/12/27 09:53:30;;;;;;;16.33;2.78;;;;;;;7.53;63.23;102008.09;5046611;28;20084;-39
2023/12/27 09:55:56;;;;;;;21.42;4.00;;;;;;;7.50;63.27;102002.91;5050680;28;20037;-36
2023/12/27 09:58:26;;;;;;;11.77;2.30;;;;;;;7.24;63.66;102004.41;5045756;28;20083;-36
2023/12/27 10:00:55;;;;;;;5.10;1.83;;;;;;;7.16;63.90;102011.59;5043376;28;20422;-36
2023/12/27 10:03:31;;;;;;;8.30;1.50;;;;;;;7.27;63.42;102017.44;5013197;28;20821;-36
2023/12/27 10:06:05;;;;;;;11.13;2.92;;;;;;;6.71;64.82;102000.38;5034092;28;20047;-36
2023/12/27 10:08:31;;;;;;;7.60;1.75;;;;;;;6.79;64.63;102005.44;5040384;28;20039;-36
2023/12/27 10:10:57;;;;;;;11.75;2.33;;;;;;;6.92;64.87;102007.78;5016364;28;20033;-36
2023/12/27 10:13:22;;;;;;;8.65;1.65;;;;;;;6.66;65.04;101998.72;5027158;28;20048;-36
2023/12/27 10:15:48;;;;;;;5.32;1.92;;;;;;;6.80;64.99;101995.81;5036751;28;20089;-36
2023/12/27 10:18:13;;;;;;;14.10;2.08;;;;;;;6.89;64.80;101990.38;5033621;28;20025;-37
2023/12/27 10:20:43;;;;;;;8.15;1.85;;;;;;;6.82;64.91;101979.19;5041292;28;20471;-36
2023/12/27 10:23:08;;;;;;;9.63;1.17;;;;;;;6.55;65.82;101964.97;5042800;28;20719;-36
2023/12/27 10:25:35;;;;;;;8.48;2.05;;;;;;;7.00;64.92;101977.94;5043396;28;20040;-36
2023/12/27 10:28:00;;;;;;;10.68;1.92;;;;;;;6.70;65.58;101969.88;5045250;28;20032;-36
2023/12/27 10:30:26;;;;;;;5.60;1.67;;;;;;;6.84;64.92;101961.69;5039439;28;20056;-37
2023/12/27 10:33:02;;;;;;;10.10;2.22;;;;;;;6.94;64.93;101961.50;5033505;28;20445;-36
2023/12/27 10:35:28;;;;;;;5.03;1.63;;;;;;;7.16;64.51;101959.25;5041340;28;20033;-36
2023/12/27 10:38:04;;;;;;;7.95;1.73;;;;;;;7.01;64.55;101969.19;5026563;28;20031;-36
2023/12/27 10:40:30;;;;;;;8.23;1.55;;;;;;;7.14;64.58;101961.03;5032560;28;20078;-38
2023/12/27 10:42:57;;;;;;;14.70;1.85;;;;;;;7.12;64.90;101960.22;5034211;28;20514;-38
2023/12/27 10:45:22;;;;;;;11.15;1.90;;;;;;;7.44;64.42;101966.41;5015354;28;20098;-36
2023/12/27 10:47:49;;;;;;;4.07;0.93;;;;;;;7.52;63.55;101959.22;5037616;28;20041;-37
2023/12/27 10:50:19;;;;;;;4.43;1.35;;;;;;;7.46;63.51;101960.22;5036671;28;20017;-36
2023/12/27 10:52:47;;;;;;;8.60;1.98;;;;;;;7.47;63.46;101961.97;5037927;28;20095;-36
2023/12/27 10:55:19;;;;;;;15.70;2.83;;;;;;;7.62;63.41;101960.72;5037050;28;20106;-36
2023/12/27 10:57:51;;;;;;;13.35;1.48;;;;;;;7.68;63.31;101964.06;5036191;28;20039;-38
2023/12/27 11:00:17;;;;;;;8.52;1.50;;;;;;;7.87;63.12;101960.06;5036057;28;20622;-38
2023/12/27 11:02:43;;;;;;;6.60;1.70;;;;;;;7.95;63.08;101959.84;5038574;28;20127;-38
2023/12/27 11:05:09;;;;;;;9.27;2.13;;;;;;;7.98;62.36;101970.28;5036249;28;20119;-38
2023/12/27 11:07:41;;;;;;;6.78;1.42;;;;;;;7.89;62.48;101960.00;5038937;28;20064;-35
2023/12/27 11:10:09;;;;;;;11.50;1.57;;;;;;;7.90;62.72;101960.00;5029179;28;20041;-36
2023/12/27 11:12:38;;;;;;;9.52;1.50;;;;;;;7.85;62.24;101959.25;5038596;28;20049;-37
2023/12/27 11:15:05;;;;;;;11.43;1.25;;;;;;;7.91;62.40;101951.22;5031487;28;20029;-37
2023/12/27 11:17:35;;;;;;;21.88;3.40;;;;;;;7.78;63.03;101953.31;5036088;28;20106;-37
2023/12/27 11:20:01;;;;;;;7.57;1.08;;;;;;;7.84;62.84;101949.66;4986257;28;20021;-37
2023/12/27 11:22:27;;;;;;;10.05;1.45;;;;;;;8.00;62.62;101938.75;5032257;28;20033;-37
2023/12/27 11:24:54;;;;;;;14.50;1.73;;;;;;;8.05;62.59;101949.97;5032720;28;20040;-37
2023/12/27 11:27:20;;;;;;;11.18;1.60;;;;;;;8.02;61.96;101952.69;5033518;28;20040;-37